Pelahatchie, Mississippi
Current Conditions -  °F | °C
As of 2:54 PM on Thursday 27 Nov 2014 (Local Time) from KJAN Reporting Station
Clear Clear  
Wind Chill: 51°   Ceiling: Unl
Heat Index: 51°   Visibility: 10mi
Dew Point: 29°   Wind: 10mph
Humidity: 43%   Direction: 320°NW
Pressure: 30.45"   Gusts: NA
Location:  32.31°N, 89.8°W
Report Text: KJAN 272054Z 32009KT 10SM CLR 11/M02 A3045 RMK AO2 SLP310 T01061017 55008
Loading
Personal Weather Stations






























Interactive Weather Map New forecast layout! Learn more

10-Day Weather Forecast

Advertisements
Track Severe Weather on mobile